sensor_id;sensor_type;location;lat;lon;timestamp;pressure;altitude;pressure_sealevel;temperature;humidity
7168;BME280;3625;51.762;14.320;2023-09-19T00:01:28;99877.03;;;16.77;100.00
7168;BME280;3625;51.762;14.320;2023-09-19T00:03:58;99878.94;;;16.75;100.00
7168;BME280;3625;51.762;14.320;2023-09-19T00:06:29;99890.47;;;16.76;100.00
7168;BME280;3625;51.762;14.320;2023-09-19T00:08:58;99887.03;;;16.74;100.00
7168;BME280;3625;51.762;14.320;2023-09-19T00:11:28;99886.16;;;16.73;100.00
7168;BME280;3625;51.762;14.320;2023-09-19T00:13:57;99893.22;;;16.74;100.00
7168;BME280;3625;51.762;14.320;2023-09-19T00:16:28;99894.97;;;16.75;100.00
7168;BME280;3625;51.762;14.320;2023-09-19T00:18:57;99886.94;;;16.75;100.00
7168;BME280;3625;51.762;14.320;2023-09-19T00:21:27;99897.34;;;16.80;100.00
7168;BME280;3625;51.762;14.320;2023-09-19T00:23:55;99895.53;;;16.80;100.00
7168;BME280;3625;51.762;14.320;2023-09-19T00:26:24;99900.88;;;16.80;100.00
7168;BME280;3625;51.762;14.320;2023-09-19T00:28:53;99896.41;;;16.81;100.00
7168;BME280;3625;51.762;14.320;2023-09-19T00:31:26;99899.88;;;16.83;100.00
7168;BME280;3625;51.762;14.320;2023-09-19T00:33:55;99908.75;;;16.83;100.00
7168;BME280;3625;51.762;14.320;2023-09-19T00:36:26;99902.47;;;16.84;100.00
7168;BME280;3625;51.762;14.320;2023-09-19T00:38:54;99905.22;;;16.83;100.00
7168;BME280;3625;51.762;14.320;2023-09-19T00:41:23;99898.22;;;16.80;100.00
7168;BME280;3625;51.762;14.320;2023-09-19T00:43:53;99890.28;;;16.79;100.00
7168;BME280;3625;51.762;14.320;2023-09-19T00:46:22;99888.75;;;16.75;100.00
7168;BME280;3625;51.762;14.320;2023-09-19T00:48:53;99890.72;;;16.71;100.00
7168;BME280;3625;51.762;14.320;2023-09-19T00:51:22;99892.88;;;16.65;100.00
7168;BME280;3625;51.762;14.320;2023-09-19T00:53:52;99893.03;;;16.62;100.00
7168;BME280;3625;51.762;14.320;2023-09-19T00:56:21;99880.72;;;16.59;100.00
7168;BME280;3625;51.762;14.320;2023-09-19T00:58:51;99893.38;;;16.55;100.00
7168;BME280;3625;51.762;14.320;2023-09-19T01:01:20;99881.91;;;16.53;100.00
7168;BME280;3625;51.762;14.320;2023-09-19T01:03:51;99880.16;;;16.52;100.00
7168;BME280;3625;51.762;14.320;2023-09-19T01:06:21;99880.16;;;16.52;100.00
7168;BME280;3625;51.762;14.320;2023-09-19T01:08:49;99874.94;;;16.51;100.00
7168;BME280;3625;51.762;14.320;2023-09-19T01:11:28;99872.28;;;16.51;100.00
7168;BME280;3625;51.762;14.320;2023-09-19T01:14:06;99860.88;;;16.47;100.00
7168;BME280;3625;51.762;14.320;2023-09-19T01:16:48;99868.81;;;16.49;100.00
7168;BME280;3625;51.762;14.320;2023-09-19T01:19:53;99861.84;;;16.46;100.00
7168;BME280;3625;51.762;14.320;2023-09-19T01:22:40;99801.38;;;16.14;100.00
7168;BME280;3625;51.762;14.320;2023-09-19T01:25:44;99848.63;;;16.43;100.00
7168;BME280;3625;51.762;14.320;2023-09-19T01:28:30;99858.56;;;16.41;100.00
7168;BME280;3625;51.762;14.320;2023-09-19T01:31:10;99860.31;;;16.42;100.00
7168;BME280;3625;51.762;14.320;2023-09-19T01:33:59;99831.94;;;16.24;100.00
7168;BME280;3625;51.762;14.320;2023-09-19T01:36:30;99858.50;;;16.43;100.00
7168;BME280;3625;51.762;14.320;2023-09-19T01:39:02;99861.25;;;16.41;100.00
7168;BME280;3625;51.762;14.320;2023-09-19T01:42:01;99872.88;;;16.40;100.00
7168;BME280;3625;51.762;14.320;2023-09-19T01:44:38;99875.53;;;16.40;100.00
7168;BME280;3625;51.762;14.320;2023-09-19T01:47:17;99868.31;;;16.42;100.00
7168;BME280;3625;51.762;14.320;2023-09-19T01:49:55;99870.88;;;16.44;100.00
7168;BME280;3625;51.762;14.320;2023-09-19T01:52:30;99862.09;;;16.42;100.00
7168;BME280;3625;51.762;14.320;2023-09-19T01:55:06;99867.44;;;16.42;100.00
7168;BME280;3625;51.762;14.320;2023-09-19T01:57:48;99860.31;;;16.42;100.00
7168;BME280;3625;51.762;14.320;2023-09-19T02:00:20;99860.09;;;16.45;100.00
7168;BME280;3625;51.762;14.320;2023-09-19T02:02:54;99873.47;;;16.45;100.00
7168;BME280;3625;51.762;14.320;2023-09-19T02:05:26;99878.72;;;16.47;100.00
7168;BME280;3625;51.762;14.320;2023-09-19T02:07:56;99868.91;;;16.47;100.00
7168;BME280;3625;51.762;14.320;2023-09-19T02:10:26;99882.16;;;16.49;100.00
7168;BME280;3625;51.762;14.320;2023-09-19T02:12:55;99879.31;;;16.52;100.00
7168;BME280;3625;51.762;14.320;2023-09-19T02:15:24;99874.75;;;16.54;100.00
7168;BME280;3625;51.762;14.320;2023-09-19T02:17:54;99875.44;;;16.57;100.00
7168;BME280;3625;51.762;14.320;2023-09-19T02:20:24;99883.47;;;16.57;100.00
7168;BME280;3625;51.762;14.320;2023-09-19T02:22:54;99887.00;;;16.58;100.00
7168;BME280;3625;51.762;14.320;2023-09-19T02:25:23;99877.09;;;16.60;100.00
7168;BME280;3625;51.762;14.320;2023-09-19T02:27:54;99878.81;;;16.61;100.00
7168;BME280;3625;51.762;14.320;2023-09-19T02:30:26;99857.44;;;16.45;100.00
7168;BME280;3625;51.762;14.320;2023-09-19T02:32:57;99882.53;;;16.58;100.00
7168;BME280;3625;51.762;14.320;2023-09-19T02:35:29;99858.38;;;16.44;100.00
7168;BME280;3625;51.762;14.320;2023-09-19T02:38:01;99878.91;;;16.59;100.00
7168;BME280;3625;51.762;14.320;2023-09-19T02:40:34;99870.91;;;16.59;100.00
7168;BME280;3625;51.762;14.320;2023-09-19T02:43:04;99867.38;;;16.59;100.00
7168;BME280;3625;51.762;14.320;2023-09-19T02:45:34;99870.13;;;16.57;100.00
7168;BME280;3625;51.762;14.320;2023-09-19T02:48:05;99870.13;;;16.57;100.00
7168;BME280;3625;51.762;14.320;2023-09-19T02:50:35;99875.53;;;16.56;100.00
7168;BME280;3625;51.762;14.320;2023-09-19T02:53:04;99874.59;;;16.57;100.00
7168;BME280;3625;51.762;14.320;2023-09-19T02:55:34;99879.06;;;16.56;100.00
7168;BME280;3625;51.762;14.320;2023-09-19T02:58:03;99870.97;;;16.58;100.00
7168;BME280;3625;51.762;14.320;2023-09-19T03:00:32;99881.59;;;16.59;100.00
7168;BME280;3625;51.762;14.320;2023-09-19T03:03:04;99879.84;;;16.58;100.00
7168;BME280;3625;51.762;14.320;2023-09-19T03:05:35;99885.03;;;16.62;100.00
7168;BME280;3625;51.762;14.320;2023-09-19T03:08:06;99887.63;;;16.63;100.00
7168;BME280;3625;51.762;14.320;2023-09-19T03:10:35;99887.53;;;16.65;100.00
7168;BME280;3625;51.762;14.320;2023-09-19T03:13:05;99885.81;;;16.64;100.00
7168;BME280;3625;51.762;14.320;2023-09-19T03:15:40;99886.59;;;16.66;100.00
7168;BME280;3625;51.762;14.320;2023-09-19T03:18:13;99892.88;;;16.65;100.00
7168;BME280;3625;51.762;14.320;2023-09-19T03:20:42;99894.78;;;16.63;100.00
7168;BME280;3625;51.762;14.320;2023-09-19T03:23:12;99895.63;;;16.63;100.00
7168;BME280;3625;51.762;14.320;2023-09-19T03:25:41;99901.06;;;16.62;100.00
7168;BME280;3625;51.762;14.320;2023-09-19T03:28:10;99900.19;;;16.61;100.00
7168;BME280;3625;51.762;14.320;2023-09-19T03:30:42;99908.13;;;16.63;100.00
7168;BME280;3625;51.762;14.320;2023-09-19T03:33:13;99903.72;;;16.62;100.00
7168;BME280;3625;51.762;14.320;2023-09-19T03:35:43;99914.41;;;16.62;100.00
7168;BME280;3625;51.762;14.320;2023-09-19T03:38:20;99915.13;;;16.65;100.00
7168;BME280;3625;51.762;14.320;2023-09-19T03:40:50;99907.81;;;16.69;100.00
7168;BME280;3625;51.762;14.320;2023-09-19T03:43:18;99915.47;;;16.75;100.00
7168;BME280;3625;51.762;14.320;2023-09-19T03:45:47;99916.06;;;16.80;100.00
7168;BME280;3625;51.762;14.320;2023-09-19T03:48:20;99912.44;;;16.81;100.00
7168;BME280;3625;51.762;14.320;2023-09-19T03:50:51;99909.69;;;16.82;100.00
7168;BME280;3625;51.762;14.320;2023-09-19T03:53:21;99911.56;;;16.80;100.00
7168;BME280;3625;51.762;14.320;2023-09-19T03:55:50;99918.72;;;16.80;100.00
7168;BME280;3625;51.762;14.320;2023-09-19T03:58:19;99925.88;;;16.79;100.00
7168;BME280;3625;51.762;14.320;2023-09-19T04:00:48;99924.06;;;16.80;100.00
7168;BME280;3625;51.762;14.320;2023-09-19T04:03:19;99936.47;;;16.81;100.00
7168;BME280;3625;51.762;14.320;2023-09-19T04:05:49;99930.13;;;16.83;100.00
7168;BME280;3625;51.762;14.320;2023-09-19T04:08:17;99938.06;;;16.85;100.00
7168;BME280;3625;51.762;14.320;2023-09-19T04:10:46;99933.47;;;16.87;100.00
7168;BME280;3625;51.762;14.320;2023-09-19T04:13:17;99938.56;;;16.91;100.00
7168;BME280;3625;51.762;14.320;2023-09-19T04:15:46;99940.28;;;16.92;100.00
7168;BME280;3625;51.762;14.320;2023-09-19T04:18:15;99945.56;;;16.94;100.00
7168;BME280;3625;51.762;14.320;2023-09-19T04:20:49;99957.19;;;16.93;100.00
7168;BME280;3625;51.762;14.320;2023-09-19T04:23:18;99938.81;;;16.87;100.00
7168;BME280;3625;51.762;14.320;2023-09-19T04:25:48;99935.31;;;16.86;100.00
7168;BME280;3625;51.762;14.320;2023-09-19T04:28:18;99938.22;;;16.82;100.00
7168;BME280;3625;51.762;14.320;2023-09-19T04:30:47;99939.16;;;16.81;100.00
7168;BME280;3625;51.762;14.320;2023-09-19T04:33:16;99937.44;;;16.80;100.00
7168;BME280;3625;51.762;14.320;2023-09-19T04:35:44;99941.25;;;16.76;100.00
7168;BME280;3625;51.762;14.320;2023-09-19T04:38:14;99940.97;;;16.80;100.00
7168;BME280;3625;51.762;14.320;2023-09-19T04:40:43;99946.38;;;16.79;100.00
7168;BME280;3625;51.762;14.320;2023-09-19T04:43:12;99944.66;;;16.78;100.00
7168;BME280;3625;51.762;14.320;2023-09-19T04:45:42;99948.31;;;16.77;100.00
7168;BME280;3625;51.762;14.320;2023-09-19T04:48:11;99951.06;;;16.75;100.00
7168;BME280;3625;51.762;14.320;2023-09-19T04:50:42;99962.59;;;16.76;100.00
7168;BME280;3625;51.762;14.320;2023-09-19T04:53:11;99951.84;;;16.77;100.00
7168;BME280;3625;51.762;14.320;2023-09-19T04:55:41;99960.59;;;16.79;100.00
7168;BME280;3625;51.762;14.320;2023-09-19T04:58:10;99962.41;;;16.79;100.00
7168;BME280;3625;51.762;14.320;2023-09-19T05:00:39;99961.47;;;16.80;100.00
7168;BME280;3625;51.762;14.320;2023-09-19T05:03:10;99971.13;;;16.82;100.00
7168;BME280;3625;51.762;14.320;2023-09-19T05:05:39;99965.53;;;16.87;100.00
7168;BME280;3625;51.762;14.320;2023-09-19T05:08:10;99968.19;;;16.87;100.00
7168;BME280;3625;51.762;14.320;2023-09-19T05:10:38;99972.28;;;16.94;100.00
7168;BME280;3625;51.762;14.320;2023-09-19T05:13:09;99977.44;;;16.97;100.00
7168;BME280;3625;51.762;14.320;2023-09-19T05:16:03;99886.66;;;16.48;100.00
7168;BME280;3625;51.762;14.320;2023-09-19T05:18:32;99975.38;;;17.02;100.00
7168;BME280;3625;51.762;14.320;2023-09-19T05:21:02;99980.53;;;17.05;100.00
7168;BME280;3625;51.762;14.320;2023-09-19T05:23:31;99990.13;;;17.09;100.00
7168;BME280;3625;51.762;14.320;2023-09-19T05:26:00;99988.09;;;17.13;100.00
7168;BME280;3625;51.762;14.320;2023-09-19T05:28:31;99988.66;;;17.19;100.00
7168;BME280;3625;51.762;14.320;2023-09-19T05:31:02;99992.84;;;17.23;100.00
7168;BME280;3625;51.762;14.320;2023-09-19T05:33:30;99993.34;;;17.30;100.00
7168;BME280;3625;51.762;14.320;2023-09-19T05:36:00;99997.50;;;17.35;100.00
7168;BME280;3625;51.762;14.320;2023-09-19T05:38:30;100007.06;;;17.40;100.00
7168;BME280;3625;51.762;14.320;2023-09-19T05:41:00;100006.91;;;17.43;100.00
7168;BME280;3625;51.762;14.320;2023-09-19T05:43:31;100005.78;;;17.47;100.00
7168;BME280;3625;51.762;14.320;2023-09-19T05:46:00;100014.41;;;17.52;100.00
7168;BME280;3625;51.762;14.320;2023-09-19T05:48:29;100006.00;;;17.58;100.00
7168;BME280;3625;51.762;14.320;2023-09-19T05:50:58;100017.16;;;17.66;100.00
7168;BME280;3625;51.762;14.320;2023-09-19T05:53:28;100010.41;;;17.75;100.00
7168;BME280;3625;51.762;14.320;2023-09-19T05:55:57;100018.75;;;17.84;100.00
7168;BME280;3625;51.762;14.320;2023-09-19T05:58:29;100030.66;;;17.94;100.00
7168;BME280;3625;51.762;14.320;2023-09-19T06:00:59;100036.16;;;18.07;100.00
7168;BME280;3625;51.762;14.320;2023-09-19T06:03:29;100037.41;;;18.16;100.00
7168;BME280;3625;51.762;14.320;2023-09-19T06:05:58;100041.34;;;18.24;100.00
7168;BME280;3625;51.762;14.320;2023-09-19T06:08:27;100044.50;;;18.31;100.00
7168;BME280;3625;51.762;14.320;2023-09-19T06:10:56;100056.66;;;18.36;100.00
7168;BME280;3625;51.762;14.320;2023-09-19T06:13:27;100055.22;;;18.45;100.00
7168;BME280;3625;51.762;14.320;2023-09-19T06:16:00;100065.38;;;18.54;100.00
7168;BME280;3625;51.762;14.320;2023-09-19T06:18:32;100069.75;;;18.57;100.00
7168;BME280;3625;51.762;14.320;2023-09-19T06:21:05;100069.25;;;18.64;100.00
7168;BME280;3625;51.762;14.320;2023-09-19T06:23:38;100068.88;;;18.70;100.00
7168;BME280;3625;51.762;14.320;2023-09-19T06:26:11;100071.94;;;18.78;100.00
7168;BME280;3625;51.762;14.320;2023-09-19T06:28:53;100079.41;;;18.88;100.00
7168;BME280;3625;51.762;14.320;2023-09-19T06:31:35;100080.88;;;18.93;100.00
7168;BME280;3625;51.762;14.320;2023-09-19T06:34:20;100081.53;;;18.97;100.00
7168;BME280;3625;51.762;14.320;2023-09-19T06:36:52;100082.28;;;18.99;100.00
7168;BME280;3625;51.762;14.320;2023-09-19T06:39:24;100085.66;;;19.02;100.00
7168;BME280;3625;51.762;14.320;2023-09-19T06:42:01;100086.00;;;18.96;100.00
7168;BME280;3625;51.762;14.320;2023-09-19T06:44:31;100094.91;;;18.97;100.00
7168;BME280;3625;51.762;14.320;2023-09-19T06:47:01;100094.91;;;18.97;100.00
7168;BME280;3625;51.762;14.320;2023-09-19T06:49:32;100093.00;;;18.99;100.00
7168;BME280;3625;51.762;14.320;2023-09-19T06:52:01;100106.03;;;19.05;100.00
7168;BME280;3625;51.762;14.320;2023-09-19T06:54:30;100110.44;;;19.06;100.00
7168;BME280;3625;51.762;14.320;2023-09-19T06:57:01;100114.06;;;19.05;100.00
7168;BME280;3625;51.762;14.320;2023-09-19T06:59:30;100115.63;;;19.09;100.00
7168;BME280;3625;51.762;14.320;2023-09-19T07:02:01;100126.72;;;19.17;100.00
7168;BME280;3625;51.762;14.320;2023-09-19T07:04:30;100135.06;;;19.27;100.00
7168;BME280;3625;51.762;14.320;2023-09-19T07:07:00;100134.34;;;19.37;100.00
7168;BME280;3625;51.762;14.320;2023-09-19T07:09:28;100140.13;;;19.45;100.00
7168;BME280;3625;51.762;14.320;2023-09-19T07:11:57;100144.72;;;19.57;100.00
7168;BME280;3625;51.762;14.320;2023-09-19T07:14:26;100144.38;;;19.76;100.00
7168;BME280;3625;51.762;14.320;2023-09-19T07:16:55;100148.97;;;19.88;100.00
7168;BME280;3625;51.762;14.320;2023-09-19T07:19:26;100152.00;;;19.96;100.00
7168;BME280;3625;51.762;14.320;2023-09-19T07:21:55;100155.25;;;20.02;100.00
7168;BME280;3625;51.762;14.320;2023-09-19T07:24:26;100161.66;;;19.99;100.00
7168;BME280;3625;51.762;14.320;2023-09-19T07:26:56;100168.38;;;20.06;100.00
7168;BME280;3625;51.762;14.320;2023-09-19T07:29:25;100168.38;;;20.06;100.00
7168;BME280;3625;51.762;14.320;2023-09-19T07:31:54;100176.91;;;20.13;100.00
7168;BME280;3625;51.762;14.320;2023-09-19T07:34:25;100179.47;;;20.14;100.00
7168;BME280;3625;51.762;14.320;2023-09-19T07:36:53;100179.94;;;20.21;100.00
7168;BME280;3625;51.762;14.320;2023-09-19T07:39:22;100173.09;;;20.29;100.00
7168;BME280;3625;51.762;14.320;2023-09-19T07:41:51;100193.38;;;20.48;100.00
7168;BME280;3625;51.762;14.320;2023-09-19T07:44:21;100192.00;;;20.55;100.00
7168;BME280;3625;51.762;14.320;2023-09-19T07:46:50;100202.13;;;20.64;100.00
7168;BME280;3625;51.762;14.320;2023-09-19T07:49:19;100204.19;;;20.73;100.00
7168;BME280;3625;51.762;14.320;2023-09-19T07:51:50;100203.63;;;20.68;100.00
7168;BME280;3625;51.762;14.320;2023-09-19T07:54:22;100206.56;;;20.65;100.00
7168;BME280;3625;51.762;14.320;2023-09-19T07:56:53;100202.94;;;20.52;100.00
7168;BME280;3625;51.762;14.320;2023-09-19T07:59:23;100206.81;;;20.48;100.00
7168;BME280;3625;51.762;14.320;2023-09-19T08:01:51;100206.59;;;20.51;100.00
7168;BME280;3625;51.762;14.320;2023-09-19T08:04:20;100209.34;;;20.63;100.00
7168;BME280;3625;51.762;14.320;2023-09-19T08:06:51;100214.44;;;20.81;100.00
7168;BME280;3625;51.762;14.320;2023-09-19T08:09:20;100219.81;;;20.81;100.00
7168;BME280;3625;51.762;14.320;2023-09-19T08:11:56;100216.56;;;20.76;100.00
7168;BME280;3625;51.762;14.320;2023-09-19T08:14:25;100218.41;;;20.75;100.00
7168;BME280;3625;51.762;14.320;2023-09-19T08:16:57;100224.19;;;20.69;97.87
7168;BME280;3625;51.762;14.320;2023-09-19T08:19:27;100226.19;;;20.53;98.34
7168;BME280;3625;51.762;14.320;2023-09-19T08:21:58;100231.97;;;20.47;98.41
7168;BME280;3625;51.762;14.320;2023-09-19T08:24:31;100236.91;;;20.40;99.10
7168;BME280;3625;51.762;14.320;2023-09-19T08:27:00;100233.34;;;20.40;98.83
7168;BME280;3625;51.762;14.320;2023-09-19T08:29:32;100233.69;;;20.48;97.98
7168;BME280;3625;51.762;14.320;2023-09-19T08:32:00;100234.81;;;20.58;97.37
7168;BME280;3625;51.762;14.320;2023-09-19T08:34:30;100238.91;;;20.76;95.03
7168;BME280;3625;51.762;14.320;2023-09-19T08:37:04;100249.28;;;20.82;93.83
7168;BME280;3625;51.762;14.320;2023-09-19T08:39:33;100247.69;;;20.92;94.52
7168;BME280;3625;51.762;14.320;2023-09-19T08:42:05;100265.47;;;21.07;93.82
7168;BME280;3625;51.762;14.320;2023-09-19T08:44:37;100263.50;;;20.84;87.17
7168;BME280;3625;51.762;14.320;2023-09-19T08:47:10;100267.53;;;20.77;87.54
7168;BME280;3625;51.762;14.320;2023-09-19T08:49:45;100267.81;;;20.99;87.35
7168;BME280;3625;51.762;14.320;2023-09-19T08:52:27;100261.94;;;21.45;85.61
7168;BME280;3625;51.762;14.320;2023-09-19T08:54:59;100261.53;;;21.51;85.53
7168;BME280;3625;51.762;14.320;2023-09-19T08:57:36;100261.66;;;21.50;85.35
7168;BME280;3625;51.762;14.320;2023-09-19T09:00:10;100265.97;;;21.52;85.65
7168;BME280;3625;51.762;14.320;2023-09-19T09:02:43;100244.63;;;21.24;81.63
7168;BME280;3625;51.762;14.320;2023-09-19T09:05:17;100274.13;;;21.25;82.60
7168;BME280;3625;51.762;14.320;2023-09-19T09:07:52;100275.97;;;21.50;82.27
7168;BME280;3625;51.762;14.320;2023-09-19T09:10:24;100282.31;;;21.74;72.01
7168;BME280;3625;51.762;14.320;2023-09-19T09:12:54;100275.63;;;21.80;73.10
7168;BME280;3625;51.762;14.320;2023-09-19T09:15:23;100271.09;;;21.80;71.14
7168;BME280;3625;51.762;14.320;2023-09-19T09:17:52;100283.59;;;21.81;67.09
7168;BME280;3625;51.762;14.320;2023-09-19T09:20:22;100281.97;;;21.54;66.29
7168;BME280;3625;51.762;14.320;2023-09-19T09:22:55;100297.94;;;21.69;65.46
7168;BME280;3625;51.762;14.320;2023-09-19T09:25:52;100289.22;;;21.78;63.65
7168;BME280;3625;51.762;14.320;2023-09-19T09:28:25;100285.41;;;21.81;61.33
7168;BME280;3625;51.762;14.320;2023-09-19T09:30:58;100282.44;;;21.60;62.89
7168;BME280;3625;51.762;14.320;2023-09-19T09:33:27;100282.22;;;21.25;62.62
7168;BME280;3625;51.762;14.320;2023-09-19T09:35:57;100274.94;;;21.13;65.11
7168;BME280;3625;51.762;14.320;2023-09-19T09:38:30;100280.59;;;21.23;62.76
7168;BME280;3625;51.762;14.320;2023-09-19T09:41:11;100279.53;;;21.25;62.70
7168;BME280;3625;51.762;14.320;2023-09-19T09:43:43;100275.09;;;21.24;61.35
7168;BME280;3625;51.762;14.320;2023-09-19T09:46:15;100273.56;;;21.20;60.54
7168;BME280;3625;51.762;14.320;2023-09-19T09:49:05;100282.22;;;21.51;60.52
7168;BME280;3625;51.762;14.320;2023-09-19T09:51:48;100283.81;;;21.78;58.04
7168;BME280;3625;51.762;14.320;2023-09-19T09:54:29;100284.25;;;21.72;58.47
7168;BME280;3625;51.762;14.320;2023-09-19T09:57:05;100289.31;;;22.02;56.81
7168;BME280;3625;51.762;14.320;2023-09-19T09:59:51;100306.00;;;21.95;57.72
7168;BME280;3625;51.762;14.320;2023-09-19T10:02:25;100300.31;;;21.61;57.22
7168;BME280;3625;51.762;14.320;2023-09-19T10:04:57;100286.84;;;21.36;58.65
7168;BME280;3625;51.762;14.320;2023-09-19T10:07:46;100283.81;;;21.40;59.17
7168;BME280;3625;51.762;14.320;2023-09-19T10:10:32;100299.75;;;21.94;56.15
7168;BME280;3625;51.762;14.320;2023-09-19T10:13:31;100254.69;;;22.09;53.70
7168;BME280;3625;51.762;14.320;2023-09-19T10:16:07;100303.72;;;22.50;53.71
7168;BME280;3625;51.762;14.320;2023-09-19T11:09:45;100314.88;;;23.52;45.91
7168;BME280;3625;51.762;14.320;2023-09-19T11:12:49;100324.66;;;23.53;46.69
7168;BME280;3625;51.762;14.320;2023-09-19T11:18:55;100316.56;;;23.18;45.71
7168;BME280;3625;51.762;14.320;2023-09-19T11:21:55;100330.41;;;23.14;43.50
7168;BME280;3625;51.762;14.320;2023-09-19T11:24:32;100323.88;;;23.05;42.20
7168;BME280;3625;51.762;14.320;2023-09-19T11:27:13;100334.19;;;23.00;40.10
7168;BME280;3625;51.762;14.320;2023-09-19T11:29:45;100336.19;;;22.85;40.28
7168;BME280;3625;51.762;14.320;2023-09-19T11:32:14;100303.56;;;22.65;40.82
7168;BME280;3625;51.762;14.320;2023-09-19T11:34:48;100339.34;;;22.79;41.32
7168;BME280;3625;51.762;14.320;2023-09-19T11:40:39;100332.97;;;22.80;41.32
7168;BME280;3625;51.762;14.320;2023-09-19T11:43:35;100331.25;;;22.79;40.13
7168;BME280;3625;51.762;14.320;2023-09-19T11:46:08;100333.72;;;22.46;40.31
7168;BME280;3625;51.762;14.320;2023-09-19T11:48:39;100328.59;;;22.30;40.97
7168;BME280;3625;51.762;14.320;2023-09-19T11:51:13;100327.53;;;22.20;41.08
7168;BME280;3625;51.762;14.320;2023-09-19T11:53:47;100337.78;;;22.15;41.92
7168;BME280;3625;51.762;14.320;2023-09-19T11:56:22;100332.47;;;22.26;41.88
7168;BME280;3625;51.762;14.320;2023-09-19T11:58:55;100334.72;;;22.32;42.28
7168;BME280;3625;51.762;14.320;2023-09-19T12:01:29;100328.78;;;22.40;42.36
7168;BME280;3625;51.762;14.320;2023-09-19T12:04:01;100325.66;;;22.33;42.20
7168;BME280;3625;51.762;14.320;2023-09-19T12:06:32;100327.69;;;22.42;41.94
7168;BME280;3625;51.762;14.320;2023-09-19T12:09:03;100335.34;;;22.48;42.37
7168;BME280;3625;51.762;14.320;2023-09-19T12:11:42;100336.53;;;22.68;42.71
7168;BME280;3625;51.762;14.320;2023-09-19T12:14:22;100337.50;;;22.80;41.49
7168;BME280;3625;51.762;14.320;2023-09-19T12:16:55;100341.44;;;22.63;41.91
7168;BME280;3625;51.762;14.320;2023-09-19T12:19:25;100351.38;;;22.50;41.75
7168;BME280;3625;51.762;14.320;2023-09-19T12:21:57;100339.13;;;22.46;41.69
7168;BME280;3625;51.762;14.320;2023-09-19T12:24:28;100329.13;;;22.35;41.54
7168;BME280;3625;51.762;14.320;2023-09-19T12:27:02;100330.63;;;22.39;41.91
7168;BME280;3625;51.762;14.320;2023-09-19T12:29:45;100334.03;;;22.54;42.06
7168;BME280;3625;51.762;14.320;2023-09-19T12:32:17;100330.75;;;22.62;42.02
7168;BME280;3625;51.762;14.320;2023-09-19T12:34:53;100327.84;;;22.65;42.43
7168;BME280;3625;51.762;14.320;2023-09-19T12:37:24;100336.66;;;22.67;42.42
7168;BME280;3625;51.762;14.320;2023-09-19T12:40:08;100325.34;;;22.74;41.61
7168;BME280;3625;51.762;14.320;2023-09-19T12:42:46;100333.09;;;22.79;41.93
7168;BME280;3625;51.762;14.320;2023-09-19T12:45:25;100338.66;;;22.88;41.42
7168;BME280;3625;51.762;14.320;2023-09-19T12:48:20;100327.81;;;22.77;41.27
7168;BME280;3625;51.762;14.320;2023-09-19T12:51:01;100326.53;;;22.94;41.54
7168;BME280;3625;51.762;14.320;2023-09-19T12:53:35;100330.75;;;22.98;41.28
7168;BME280;3625;51.762;14.320;2023-09-19T12:56:10;100335.31;;;23.09;40.77
7168;BME280;3625;51.762;14.320;2023-09-19T12:58:49;100335.38;;;22.96;40.36
7168;BME280;3625;51.762;14.320;2023-09-19T13:01:20;100322.75;;;22.97;40.82
7168;BME280;3625;51.762;14.320;2023-09-19T13:04:11;100323.63;;;22.97;40.92
7168;BME280;3625;51.762;14.320;2023-09-19T13:06:42;100325.34;;;23.09;41.23
7168;BME280;3625;51.762;14.320;2023-09-19T13:09:12;100330.66;;;23.11;40.26
7168;BME280;3625;51.762;14.320;2023-09-19T13:11:42;100326.19;;;22.99;40.52
7168;BME280;3625;51.762;14.320;2023-09-19T13:14:17;100330.97;;;22.95;40.56
7168;BME280;3625;51.762;14.320;2023-09-19T13:17:02;100326.19;;;22.99;41.16
7168;BME280;3625;51.762;14.320;2023-09-19T13:19:44;100326.47;;;23.07;40.82
7168;BME280;3625;51.762;14.320;2023-09-19T13:22:41;100328.91;;;23.10;40.83
7168;BME280;3625;51.762;14.320;2023-09-19T13:25:15;100325.88;;;23.14;41.27
7168;BME280;3625;51.762;14.320;2023-09-19T13:27:47;100329.88;;;23.32;41.02
7168;BME280;3625;51.762;14.320;2023-09-19T13:30:19;100330.03;;;23.42;40.67
7168;BME280;3625;51.762;14.320;2023-09-19T13:32:50;100315.84;;;23.27;39.89
7168;BME280;3625;51.762;14.320;2023-09-19T13:35:20;100317.56;;;23.28;40.30
7168;BME280;3625;51.762;14.320;2023-09-19T13:37:49;100312.19;;;23.28;39.69
7168;BME280;3625;51.762;14.320;2023-09-19T13:40:19;100320.41;;;23.27;39.88
7168;BME280;3625;51.762;14.320;2023-09-19T13:42:48;100319.00;;;23.10;39.94
7168;BME280;3625;51.762;14.320;2023-09-19T13:45:21;100310.81;;;23.23;40.16
7168;BME280;3625;51.762;14.320;2023-09-19T13:47:53;100318.00;;;23.35;39.90
7168;BME280;3625;51.762;14.320;2023-09-19T13:50:22;100307.31;;;23.45;40.10
7168;BME280;3625;51.762;14.320;2023-09-19T13:52:52;100323.28;;;23.48;39.14
7168;BME280;3625;51.762;14.320;2023-09-19T13:55:21;100275.63;;;23.24;39.66
7168;BME280;3625;51.762;14.320;2023-09-19T13:57:50;100321.38;;;23.50;40.06
7168;BME280;3625;51.762;14.320;2023-09-19T14:00:22;100320.09;;;23.43;39.59
7168;BME280;3625;51.762;14.320;2023-09-19T14:02:52;100327.94;;;23.35;39.29
7168;BME280;3625;51.762;14.320;2023-09-19T14:05:29;100328.25;;;23.30;39.15
7168;BME280;3625;51.762;14.320;2023-09-19T14:07:58;100307.91;;;23.02;39.11
7168;BME280;3625;51.762;14.320;2023-09-19T14:10:28;100322.44;;;23.12;39.14
7168;BME280;3625;51.762;14.320;2023-09-19T14:12:59;100311.59;;;23.01;38.88
7168;BME280;3625;51.762;14.320;2023-09-19T14:15:28;100320.63;;;22.89;38.68
7168;BME280;3625;51.762;14.320;2023-09-19T14:18:05;100323.56;;;22.86;39.06
7168;BME280;3625;51.762;14.320;2023-09-19T14:20:38;100325.84;;;22.79;38.00
7168;BME280;3625;51.762;14.320;2023-09-19T14:23:08;100328.13;;;22.73;37.75
7168;BME280;3625;51.762;14.320;2023-09-19T14:25:37;100326.63;;;22.69;37.76